createdAt,value
2023-02-06T00:00:28.096Z,2.12
2023-02-06T00:01:29.793Z,2.11
2023-02-06T00:02:31.081Z,2.08
2023-02-06T00:03:32.356Z,2.04
2023-02-06T00:04:33.592Z,2.06
2023-02-06T00:05:35.116Z,2.11
2023-02-06T00:06:36.560Z,2.11
2023-02-06T00:07:37.804Z,2.07
2023-02-06T00:08:39.106Z,2.03
2023-02-06T00:09:40.299Z,2.02
2023-02-06T00:10:41.508Z,2.00
2023-02-06T00:11:42.744Z,2.04
2023-02-06T00:12:44.001Z,2.02
2023-02-06T00:13:45.623Z,2.04
2023-02-06T00:14:46.868Z,2.00
2023-02-06T00:15:48.336Z,1.97
2023-02-06T00:16:49.575Z,1.98
2023-02-06T00:17:50.845Z,1.97
2023-02-06T00:18:52.719Z,1.99
2023-02-06T00:19:54.008Z,1.98
2023-02-06T00:20:55.240Z,1.98
2023-02-06T00:21:56.470Z,2.02
2023-02-06T00:22:57.714Z,2.01
2023-02-06T00:24:00.037Z,1.99
2023-02-06T00:25:01.306Z,2.03
2023-02-06T00:26:02.573Z,2.01
2023-02-06T00:27:03.931Z,2.07
2023-02-06T00:28:05.433Z,2.03
2023-02-06T00:29:06.688Z,2.02
2023-02-06T00:30:08.096Z,2.02
2023-02-06T00:31:09.557Z,2.05
2023-02-06T00:32:10.928Z,1.99
2023-02-06T00:33:12.176Z,2.04
2023-02-06T00:34:13.448Z,2.02
2023-02-06T00:35:14.766Z,1.99
2023-02-06T00:36:16.254Z,1.97
2023-02-06T00:37:17.473Z,1.95
2023-02-06T00:38:18.719Z,1.95
2023-02-06T00:39:19.955Z,2.00
2023-02-06T00:40:21.174Z,2.06
2023-02-06T00:41:22.420Z,2.06
2023-02-06T00:42:25.632Z,2.19
2023-02-06T00:43:26.917Z,2.11
2023-02-06T00:44:28.329Z,2.05
2023-02-06T00:45:29.540Z,2.02
2023-02-06T00:46:30.970Z,1.96
2023-02-06T00:47:32.290Z,2.01
2023-02-06T00:48:33.496Z,1.99
2023-02-06T00:49:34.755Z,2.00
2023-02-06T00:50:36.313Z,1.97
2023-02-06T00:51:37.521Z,2.04
2023-02-06T00:52:38.815Z,2.05
2023-02-06T00:53:40.133Z,2.09
2023-02-06T00:54:41.331Z,2.06
2023-02-06T00:55:42.537Z,2.06
2023-02-06T00:56:43.804Z,2.03
2023-02-06T00:57:45.053Z,2.04
2023-02-06T00:58:48.500Z,2.02
2023-02-06T00:59:49.795Z,2.02
2023-02-06T01:00:52.204Z,2.00
2023-02-06T01:01:53.476Z,2.00
2023-02-06T01:02:54.789Z,2.04
2023-02-06T01:03:56.088Z,2.01
2023-02-06T01:04:57.447Z,2.00
2023-02-06T01:05:58.668Z,1.98
2023-02-06T01:07:00.021Z,1.96
2023-02-06T01:08:04.622Z,1.94
2023-02-06T01:09:06.195Z,1.94
2023-02-06T01:10:08.472Z,1.94
2023-02-06T01:11:11.248Z,1.96
2023-02-06T01:12:12.486Z,1.97
2023-02-06T01:13:13.781Z,1.96
2023-02-06T01:14:15.711Z,1.98
2023-02-06T01:15:18.019Z,1.97
2023-02-06T01:16:20.737Z,1.98
2023-02-06T01:17:21.986Z,1.93
2023-02-06T01:18:23.486Z,1.97
2023-02-06T01:19:24.752Z,1.99
2023-02-06T01:20:25.984Z,1.99
2023-02-06T01:21:27.277Z,1.98
2023-02-06T01:22:28.586Z,1.98
2023-02-06T01:23:29.833Z,1.94
2023-02-06T01:24:31.108Z,1.95
2023-02-06T01:25:32.406Z,1.94
2023-02-06T01:26:33.660Z,1.95
2023-02-06T01:27:36.239Z,1.94
2023-02-06T01:28:38.103Z,1.95
2023-02-06T01:29:39.365Z,1.99
2023-02-06T01:30:40.604Z,1.94
2023-02-06T01:31:41.843Z,1.94
2023-02-06T01:32:43.296Z,1.99
2023-02-06T01:33:45.172Z,1.91
2023-02-06T01:34:46.392Z,1.87
2023-02-06T01:35:54.625Z,1.93
2023-02-06T01:36:55.857Z,1.88
2023-02-06T01:37:57.078Z,1.85
2023-02-06T01:38:58.317Z,1.88
2023-02-06T01:39:59.572Z,1.91
2023-02-06T01:41:01.160Z,1.92
2023-02-06T01:42:03.148Z,1.89
2023-02-06T01:43:05.562Z,1.92
2023-02-06T01:44:17.103Z,1.94
2023-02-06T01:45:21.341Z,1.85
2023-02-06T01:46:22.717Z,1.86
2023-02-06T01:47:24.028Z,1.87
2023-02-06T01:48:30.162Z,1.88
2023-02-06T01:49:37.017Z,1.88
2023-02-06T01:50:39.474Z,1.86
2023-02-06T01:51:40.925Z,1.89
2023-02-06T01:52:42.220Z,1.91
2023-02-06T01:53:44.621Z,1.91
2023-02-06T01:54:49.656Z,1.91
2023-02-06T01:55:52.373Z,1.99
2023-02-06T01:56:56.439Z,1.96
2023-02-06T01:57:58.789Z,1.93
2023-02-06T01:59:00.896Z,1.92
2023-02-06T02:00:06.261Z,1.93
2023-02-06T02:01:12.789Z,1.90
2023-02-06T02:02:14.178Z,1.87
2023-02-06T02:03:15.645Z,1.79
2023-02-06T02:04:19.632Z,1.82
2023-02-06T02:05:20.982Z,1.87
2023-02-06T02:06:23.725Z,1.83
2023-02-06T02:07:27.401Z,1.99
2023-02-06T02:08:33.600Z,1.98
2023-02-06T02:09:35.044Z,1.92
2023-02-06T02:10:36.573Z,1.97
2023-02-06T02:11:38.752Z,1.88
2023-02-06T02:12:39.955Z,1.84
2023-02-06T02:13:41.282Z,1.87
2023-02-06T02:14:43.492Z,1.88
2023-02-06T02:15:57.842Z,1.87
2023-02-06T02:16:59.149Z,1.85
2023-02-06T02:18:07.063Z,1.85
2023-02-06T02:19:28.233Z,1.90
2023-02-06T02:20:46.430Z,1.87
2023-02-06T02:21:50.677Z,1.83
2023-02-06T02:23:03.108Z,1.87
2023-02-06T02:24:19.706Z,1.86
2023-02-06T02:25:39.890Z,1.89
2023-02-06T02:27:06.268Z,1.85
2023-02-06T02:28:26.225Z,1.83
2023-02-06T02:29:30.162Z,1.82
2023-02-06T02:30:43.552Z,1.81
2023-02-06T02:31:56.614Z,1.82
2023-02-06T02:33:00.808Z,1.87
2023-02-06T02:34:02.057Z,1.89
2023-02-06T02:35:12.379Z,1.90
2023-02-06T02:36:13.668Z,1.89
2023-02-06T02:37:31.176Z,1.89
2023-02-06T02:38:40.979Z,1.93
2023-02-06T02:39:46.283Z,1.91
2023-02-06T02:41:08.149Z,1.90
2023-02-06T02:42:11.993Z,1.89
2023-02-06T02:43:28.514Z,1.87
2023-02-06T02:44:47.109Z,1.86
2023-02-06T02:45:51.321Z,1.88
2023-02-06T02:46:54.717Z,1.88
2023-02-06T02:47:58.702Z,1.88
2023-02-06T02:49:02.534Z,1.89
2023-02-06T02:50:04.424Z,1.90
2023-02-06T02:51:06.746Z,1.99
2023-02-06T02:52:08.801Z,1.99
2023-02-06T02:53:10.684Z,1.97
2023-02-06T02:54:11.907Z,1.96
2023-02-06T02:55:18.484Z,1.95
2023-02-06T02:56:21.582Z,1.92
2023-02-06T02:57:28.667Z,1.96
2023-02-06T02:58:32.528Z,1.95
2023-02-06T02:59:36.377Z,1.93
2023-02-06T03:00:42.328Z,1.93
2023-02-06T03:01:48.705Z,1.94
2023-02-06T03:02:51.343Z,1.93
2023-02-06T03:03:54.793Z,1.89
2023-02-06T03:04:59.894Z,1.91
2023-02-06T03:06:06.194Z,1.92
2023-02-06T03:07:12.180Z,1.91
2023-02-06T03:08:13.423Z,1.92
2023-02-06T03:09:30.152Z,1.90
2023-02-06T03:10:50.322Z,1.93
2023-02-06T03:12:07.057Z,1.88
2023-02-06T03:13:17.108Z,1.97
2023-02-06T03:14:27.842Z,1.91
2023-02-06T03:15:41.570Z,1.91
2023-02-06T03:16:47.663Z,1.82
2023-02-06T03:17:51.856Z,1.80
2023-02-06T03:19:19.661Z,1.76
2023-02-06T03:20:21.554Z,1.79
2023-02-06T03:21:23.995Z,1.79
2023-02-06T03:22:26.633Z,1.79
2023-02-06T03:23:31.009Z,1.79
2023-02-06T03:24:34.249Z,1.78
2023-02-06T03:25:38.183Z,1.81
2023-02-06T03:26:40.921Z,1.86
2023-02-06T03:27:43.574Z,1.84
2023-02-06T03:28:47.633Z,1.89
2023-02-06T03:29:50.312Z,1.90
2023-02-06T03:30:53.728Z,1.89
2023-02-06T03:31:57.190Z,1.88
2023-02-06T03:33:03.629Z,1.87
2023-02-06T03:34:08.529Z,1.87
2023-02-06T03:35:12.561Z,1.87
2023-02-06T03:36:13.991Z,1.85
2023-02-06T03:37:15.287Z,1.83
2023-02-06T03:38:16.641Z,1.91
2023-02-06T03:39:17.921Z,1.91
2023-02-06T03:40:19.308Z,1.89
2023-02-06T03:41:23.658Z,1.90
2023-02-06T03:42:25.699Z,1.87
2023-02-06T03:43:27.978Z,1.87
2023-02-06T03:44:34.344Z,1.89
2023-02-06T03:45:41.115Z,1.84
2023-02-06T03:46:43.553Z,1.89
2023-02-06T03:47:46.329Z,1.90
2023-02-06T03:48:50.278Z,1.92
2023-02-06T03:49:52.985Z,1.86
2023-02-06T03:50:55.331Z,1.82
2023-02-06T03:52:06.930Z,1.81
2023-02-06T03:53:09.556Z,1.81
2023-02-06T03:54:11.705Z,1.81
2023-02-06T03:55:14.405Z,1.80
2023-02-06T03:56:19.626Z,1.80
2023-02-06T03:57:22.382Z,1.80
2023-02-06T03:58:24.599Z,1.76
2023-02-06T03:59:26.608Z,1.78
2023-02-06T04:00:29.409Z,1.81
2023-02-06T04:01:31.008Z,1.85
2023-02-06T04:02:32.493Z,1.81
2023-02-06T04:03:33.881Z,1.81
2023-02-06T04:04:36.706Z,1.82
2023-02-06T04:05:38.418Z,1.84
2023-02-06T04:06:39.758Z,1.82
2023-02-06T04:07:41.091Z,1.82
2023-02-06T04:08:42.311Z,1.81
2023-02-06T04:09:43.558Z,1.74
2023-02-06T04:10:44.773Z,1.77
2023-02-06T04:11:45.977Z,1.79
2023-02-06T04:12:47.173Z,1.78
2023-02-06T04:13:48.446Z,1.80
2023-02-06T04:14:49.991Z,1.82
2023-02-06T04:15:51.247Z,1.82
2023-02-06T04:16:52.540Z,1.79
2023-02-06T04:18:00.574Z,1.86
2023-02-06T04:19:02.659Z,1.81
2023-02-06T04:20:04.841Z,1.75
2023-02-06T04:21:06.676Z,1.71
2023-02-06T04:22:09.132Z,1.70
2023-02-06T04:23:10.346Z,1.67
2023-02-06T04:24:11.590Z,1.73
2023-02-06T04:25:13.103Z,1.71
2023-02-06T04:26:14.483Z,1.63
2023-02-06T04:27:16.158Z,1.69
2023-02-06T04:28:17.453Z,1.61
2023-02-06T04:29:18.977Z,1.69
2023-02-06T04:30:20.272Z,1.66
2023-02-06T04:31:21.596Z,1.67
2023-02-06T04:32:22.867Z,1.68
2023-02-06T04:33:24.097Z,1.68
2023-02-06T04:34:25.409Z,1.63
2023-02-06T04:35:26.625Z,1.65
2023-02-06T04:36:27.873Z,1.68
2023-02-06T04:37:29.114Z,1.68
2023-02-06T04:38:30.438Z,1.60
2023-02-06T04:39:32.023Z,1.59
2023-02-06T04:40:33.436Z,1.57
2023-02-06T04:41:35.078Z,1.56
2023-02-06T04:42:36.279Z,1.56
2023-02-06T04:43:37.464Z,1.56
2023-02-06T04:44:38.660Z,1.55
2023-02-06T04:45:39.906Z,1.55
2023-02-06T04:46:41.175Z,1.61
2023-02-06T04:47:42.416Z,1.56
2023-02-06T04:48:43.629Z,1.60
2023-02-06T04:49:44.906Z,1.60
2023-02-06T04:50:46.127Z,1.59
2023-02-06T04:51:47.333Z,1.55
2023-02-06T04:52:48.564Z,1.57
2023-02-06T04:53:49.836Z,1.54
2023-02-06T04:54:51.029Z,1.54
2023-02-06T04:55:52.341Z,1.49
2023-02-06T04:56:53.562Z,1.58
2023-02-06T04:57:54.748Z,1.52
2023-02-06T04:58:55.973Z,1.49
2023-02-06T04:59:57.372Z,1.47
2023-02-06T05:00:58.608Z,1.53
2023-02-06T05:01:59.881Z,1.61
2023-02-06T05:03:01.446Z,1.55
2023-02-06T05:04:02.888Z,1.53
2023-02-06T05:05:04.274Z,1.52
2023-02-06T05:06:05.707Z,1.47
2023-02-06T05:07:07.058Z,1.43
2023-02-06T05:08:08.324Z,1.45
2023-02-06T05:09:09.543Z,1.45
2023-02-06T05:10:10.772Z,1.49
2023-02-06T05:11:11.976Z,1.46
2023-02-06T05:12:14.338Z,1.51
2023-02-06T05:13:15.644Z,1.51
2023-02-06T05:14:16.845Z,1.48
2023-02-06T05:15:18.081Z,1.47
2023-02-06T05:16:19.443Z,1.48
2023-02-06T05:17:20.849Z,1.44
2023-02-06T05:18:22.187Z,1.42
2023-02-06T05:19:23.548Z,1.43
2023-02-06T05:20:24.864Z,1.43
2023-02-06T05:21:26.703Z,1.45
2023-02-06T05:22:28.205Z,1.47
2023-02-06T05:23:29.592Z,1.43
2023-02-06T05:24:31.023Z,1.55
2023-02-06T05:25:32.716Z,1.60
2023-02-06T05:26:34.126Z,1.56
2023-02-06T05:27:35.481Z,1.50
2023-02-06T05:28:36.693Z,1.50
2023-02-06T05:29:38.045Z,1.49
2023-02-06T05:30:39.315Z,1.51
2023-02-06T05:31:40.634Z,1.47
2023-02-06T05:32:41.914Z,1.47
2023-02-06T05:33:43.146Z,1.47
2023-02-06T05:34:44.832Z,1.48
2023-02-06T05:35:46.081Z,1.43
2023-02-06T05:36:47.372Z,1.42
2023-02-06T05:37:48.588Z,1.42
2023-02-06T05:38:50.534Z,1.42
2023-02-06T05:39:51.835Z,1.44
2023-02-06T05:40:53.093Z,1.41
2023-02-06T05:41:54.373Z,1.42
2023-02-06T05:42:55.676Z,1.42
2023-02-06T05:43:56.956Z,1.46
2023-02-06T05:44:58.470Z,1.40
2023-02-06T05:45:59.690Z,1.41
2023-02-06T05:47:00.964Z,1.40
2023-02-06T05:48:02.158Z,1.37
2023-02-06T05:49:03.449Z,1.38
2023-02-06T05:50:04.818Z,1.35
2023-02-06T05:51:06.076Z,1.36
2023-02-06T05:52:07.389Z,1.36
2023-02-06T05:53:08.592Z,1.37
2023-02-06T05:54:09.855Z,1.37
2023-02-06T05:55:11.227Z,1.42
2023-02-06T05:56:12.526Z,1.43
2023-02-06T05:57:13.752Z,1.42
2023-02-06T05:58:14.956Z,1.43
2023-02-06T05:59:16.203Z,1.40
2023-02-06T06:00:17.549Z,1.42
2023-02-06T06:01:18.761Z,1.41
2023-02-06T06:02:19.982Z,1.42
2023-02-06T06:03:21.253Z,1.40
2023-02-06T06:04:22.765Z,1.40
2023-02-06T06:05:24.153Z,1.40
2023-02-06T06:06:25.716Z,1.44
2023-02-06T06:07:26.921Z,1.43
2023-02-06T06:08:28.148Z,1.39
2023-02-06T06:09:29.360Z,1.41
2023-02-06T06:10:30.635Z,1.42
2023-02-06T06:11:32.040Z,1.46
2023-02-06T06:12:35.109Z,1.45
2023-02-06T06:13:38.224Z,1.46
2023-02-06T06:14:39.485Z,1.44
2023-02-06T06:15:40.729Z,1.46
2023-02-06T06:16:41.976Z,1.49
2023-02-06T06:17:43.361Z,1.51
2023-02-06T06:18:44.649Z,1.55
2023-02-06T06:19:45.888Z,1.55
2023-02-06T06:20:47.322Z,1.52
2023-02-06T06:21:48.538Z,1.52
2023-02-06T06:22:49.941Z,1.55
2023-02-06T06:23:51.152Z,1.58
2023-02-06T06:24:52.377Z,1.60
2023-02-06T06:25:53.633Z,1.58
2023-02-06T06:26:54.911Z,1.57
2023-02-06T06:27:56.191Z,1.56
2023-02-06T06:28:57.517Z,1.57
2023-02-06T06:29:58.776Z,1.57
2023-02-06T06:31:04.012Z,1.54
2023-02-06T06:32:05.555Z,1.53
2023-02-06T06:33:06.903Z,1.55
2023-02-06T06:34:08.248Z,1.55
2023-02-06T06:35:09.503Z,1.51
2023-02-06T06:36:14.049Z,1.56
2023-02-06T06:37:16.655Z,1.47
2023-02-06T06:38:17.918Z,1.44
2023-02-06T06:39:19.161Z,1.47
2023-02-06T06:40:20.487Z,1.47
2023-02-06T06:41:21.810Z,1.46
2023-02-06T06:42:23.109Z,1.47
2023-02-06T06:43:24.429Z,1.46
2023-02-06T06:44:25.747Z,1.46
2023-02-06T06:45:26.964Z,1.53
2023-02-06T06:46:28.425Z,1.52
2023-02-06T06:47:29.648Z,1.53
2023-02-06T06:48:33.632Z,1.57
2023-02-06T06:49:34.824Z,1.52
2023-02-06T06:50:36.034Z,1.47
2023-02-06T06:51:37.237Z,1.47
2023-02-06T06:52:38.456Z,1.50
2023-02-06T06:53:39.650Z,1.52
2023-02-06T06:54:40.897Z,1.50
2023-02-06T06:55:42.225Z,1.48
2023-02-06T06:56:43.439Z,1.51
2023-02-06T06:57:45.183Z,1.63
2023-02-06T06:58:46.444Z,1.63
2023-02-06T06:59:48.007Z,1.61
2023-02-06T07:00:49.268Z,1.62
2023-02-06T07:01:50.540Z,1.60
2023-02-06T07:02:51.774Z,1.57
2023-02-06T07:03:53.026Z,1.55
2023-02-06T07:04:54.283Z,1.50
2023-02-06T07:05:55.546Z,1.53
2023-02-06T07:06:56.745Z,1.55
2023-02-06T07:07:58.136Z,1.55
2023-02-06T07:08:59.329Z,1.59
2023-02-06T07:10:00.805Z,1.59
2023-02-06T07:11:02.061Z,1.60
2023-02-06T07:12:03.440Z,1.59
2023-02-06T07:13:04.701Z,1.60
2023-02-06T07:14:05.935Z,1.64
2023-02-06T07:15:07.440Z,1.65
2023-02-06T07:16:09.456Z,1.64
2023-02-06T07:17:10.715Z,1.65
2023-02-06T07:18:12.052Z,1.62
2023-02-06T07:19:13.342Z,1.63
2023-02-06T07:20:14.573Z,1.66
2023-02-06T07:21:15.895Z,1.65
2023-02-06T07:22:17.125Z,1.65
2023-02-06T07:23:18.552Z,1.66
2023-02-06T07:24:19.839Z,1.73
2023-02-06T07:25:21.114Z,1.71
2023-02-06T07:26:22.320Z,1.72
2023-02-06T07:27:23.551Z,1.84
2023-02-06T07:28:24.757Z,1.80
2023-02-06T07:29:26.041Z,1.77
2023-02-06T07:30:27.308Z,1.77
2023-02-06T07:31:28.612Z,1.87
2023-02-06T07:32:29.990Z,1.87
2023-02-06T07:33:31.212Z,1.80
2023-02-06T07:34:32.410Z,1.80
2023-02-06T07:35:34.088Z,1.84
2023-02-06T07:36:35.536Z,1.82
2023-02-06T07:37:37.228Z,1.82
2023-02-06T07:38:38.668Z,1.83
2023-02-06T07:39:39.945Z,1.83
2023-02-06T07:40:45.534Z,1.88
2023-02-06T07:41:47.408Z,1.86
2023-02-06T07:42:50.762Z,1.91
2023-02-06T07:43:58.973Z,1.86
2023-02-06T07:45:00.487Z,1.85
2023-02-06T07:46:02.750Z,1.85
2023-02-06T07:47:04.089Z,1.86
2023-02-06T07:48:05.502Z,1.86
2023-02-06T07:49:06.756Z,1.89
2023-02-06T07:50:08.177Z,1.89
2023-02-06T07:51:09.472Z,1.88
2023-02-06T07:52:10.753Z,1.87
2023-02-06T07:53:11.949Z,1.86
2023-02-06T07:54:13.438Z,1.85
2023-02-06T07:55:14.829Z,1.83
2023-02-06T07:56:17.102Z,1.83
2023-02-06T07:57:19.049Z,1.84
2023-02-06T07:58:20.281Z,1.86
2023-02-06T07:59:21.777Z,1.89
2023-02-06T08:00:22.994Z,1.93
2023-02-06T08:01:24.492Z,1.94
2023-02-06T08:02:25.746Z,1.91
2023-02-06T08:03:26.972Z,1.94
2023-02-06T08:04:28.273Z,1.93
2023-02-06T08:05:29.530Z,1.91
2023-02-06T08:06:30.776Z,1.88
2023-02-06T08:07:32.080Z,1.88
2023-02-06T08:08:33.294Z,1.90
2023-02-06T08:09:34.547Z,1.90
2023-02-06T08:10:37.576Z,1.92
2023-02-06T08:11:38.820Z,1.95
2023-02-06T08:12:40.024Z,1.99
2023-02-06T08:13:41.684Z,2.02
2023-02-06T08:14:42.888Z,2.01
2023-02-06T08:15:44.125Z,2.04
2023-02-06T08:16:45.376Z,1.98
2023-02-06T08:17:46.599Z,1.94
2023-02-06T08:18:48.445Z,1.94
2023-02-06T08:19:49.717Z,1.95
2023-02-06T08:20:50.959Z,2.01
2023-02-06T08:21:52.236Z,1.99
2023-02-06T08:22:53.861Z,1.96
2023-02-06T08:23:58.942Z,1.94
2023-02-06T08:25:00.193Z,1.99
2023-02-06T08:26:05.863Z,1.95
2023-02-06T08:27:07.134Z,1.97
2023-02-06T08:28:08.482Z,1.99
2023-02-06T08:29:10.074Z,2.03
2023-02-06T08:30:11.829Z,2.03
2023-02-06T08:31:13.161Z,2.01
2023-02-06T08:32:14.422Z,1.94
2023-02-06T08:33:15.668Z,1.97
2023-02-06T08:34:16.935Z,1.93
2023-02-06T08:35:18.172Z,1.98
2023-02-06T08:36:20.070Z,1.97
2023-02-06T08:37:21.264Z,2.02
2023-02-06T08:38:22.529Z,2.05
2023-02-06T08:39:23.746Z,2.05
2023-02-06T08:40:25.037Z,2.06
2023-02-06T08:41:31.008Z,2.06
2023-02-06T08:42:32.369Z,2.08
2023-02-06T08:43:33.637Z,2.10
2023-02-06T08:44:34.902Z,2.17
2023-02-06T08:45:36.548Z,2.20
2023-02-06T08:46:38.926Z,2.24
2023-02-06T08:47:40.176Z,2.30
2023-02-06T08:48:41.507Z,2.35
2023-02-06T08:49:42.770Z,2.30
2023-02-06T08:50:44.328Z,2.26
2023-02-06T08:51:45.917Z,2.21
2023-02-06T08:52:47.153Z,2.21
2023-02-06T08:53:48.392Z,2.21
2023-02-06T08:54:50.373Z,2.26
2023-02-06T08:55:57.017Z,2.29
2023-02-06T08:56:58.284Z,2.28
2023-02-06T08:57:59.505Z,2.33
2023-02-06T08:59:01.023Z,2.30
2023-02-06T09:00:02.451Z,2.42
2023-02-06T09:01:11.028Z,2.36
2023-02-06T09:02:12.354Z,2.32
2023-02-06T09:03:13.574Z,2.35
2023-02-06T09:04:15.364Z,2.35
2023-02-06T09:05:16.635Z,2.34
2023-02-06T09:06:17.942Z,2.38
2023-02-06T09:07:19.150Z,2.40
2023-02-06T09:08:20.344Z,2.41
2023-02-06T09:09:21.642Z,2.42
2023-02-06T09:10:27.774Z,2.45
2023-02-06T09:11:29.872Z,2.53
2023-02-06T09:12:31.121Z,2.57
2023-02-06T09:13:32.336Z,2.57
2023-02-06T09:14:33.570Z,2.57
2023-02-06T09:15:35.043Z,2.60
2023-02-06T09:16:36.512Z,2.61
2023-02-06T09:17:37.814Z,2.55
2023-02-06T09:18:39.231Z,2.51
2023-02-06T09:19:40.423Z,2.49
2023-02-06T09:20:41.667Z,2.41
2023-02-06T09:21:42.957Z,2.47
2023-02-06T09:22:44.194Z,2.50
2023-02-06T09:23:47.078Z,2.44
2023-02-06T09:24:48.270Z,2.39
2023-02-06T09:25:49.521Z,2.37
2023-02-06T09:26:59.423Z,2.42
2023-02-06T09:28:01.295Z,2.47
2023-02-06T09:29:03.369Z,2.45
2023-02-06T09:30:04.810Z,2.47
2023-02-06T09:31:09.286Z,2.49
2023-02-06T09:32:10.542Z,2.50
2023-02-06T09:33:11.780Z,2.44
2023-02-06T09:34:13.212Z,2.44
2023-02-06T09:35:14.505Z,2.46
2023-02-06T09:36:16.951Z,2.42
2023-02-06T09:37:18.290Z,2.49
2023-02-06T09:38:19.532Z,2.54
2023-02-06T09:39:20.792Z,2.53
2023-02-06T09:40:24.869Z,2.56
2023-02-06T09:41:26.103Z,2.59
2023-02-06T09:42:37.923Z,2.61
2023-02-06T09:43:42.367Z,2.63
2023-02-06T09:44:46.193Z,2.62
2023-02-06T09:45:52.844Z,2.65
2023-02-06T09:47:14.269Z,2.69
2023-02-06T09:48:19.209Z,2.70
2023-02-06T09:49:22.310Z,2.75
2023-02-06T09:50:51.031Z,2.78
2023-02-06T09:51:57.422Z,2.72
2023-02-06T09:53:07.765Z,2.76
2023-02-06T09:54:18.363Z,2.83
2023-02-06T09:55:29.484Z,2.84
2023-02-06T09:56:48.256Z,2.79
2023-02-06T09:57:55.029Z,2.82
2023-02-06T09:59:06.049Z,2.85
2023-02-06T10:00:13.648Z,2.84
2023-02-06T10:01:19.093Z,2.83
2023-02-06T10:02:26.892Z,2.79
2023-02-06T10:03:46.918Z,2.79
2023-02-06T10:04:57.047Z,2.81
2023-02-06T10:06:16.493Z,2.84
2023-02-06T10:07:17.758Z,2.71
2023-02-06T10:08:22.354Z,2.73
2023-02-06T10:09:44.599Z,2.70
2023-02-06T10:10:49.000Z,2.73
2023-02-06T10:11:53.734Z,2.76
2023-02-06T10:13:13.338Z,2.81
2023-02-06T10:14:24.195Z,2.87
2023-02-06T10:15:29.449Z,2.92
2023-02-06T10:16:41.442Z,2.97
2023-02-06T10:18:18.214Z,3.16
2023-02-06T10:19:19.457Z,3.22
2023-02-06T10:20:55.887Z,3.28
2023-02-06T10:22:02.836Z,3.30
2023-02-06T10:23:13.583Z,3.31
2023-02-06T10:24:30.734Z,3.38
2023-02-06T10:25:34.537Z,3.37
2023-02-06T10:26:39.488Z,3.38
2023-02-06T10:27:42.105Z,3.49
2023-02-06T10:28:44.083Z,3.46
2023-02-06T10:29:46.335Z,3.43
2023-02-06T10:31:09.379Z,3.43
2023-02-06T10:32:19.904Z,3.46
2023-02-06T10:33:31.708Z,3.49
2023-02-06T10:34:47.776Z,3.56
2023-02-06T10:35:49.017Z,3.59
2023-02-06T10:37:08.927Z,3.54
2023-02-06T10:38:28.724Z,3.51
2023-02-06T10:39:39.344Z,3.43
2023-02-06T10:40:40.587Z,3.47
2023-02-06T10:41:54.009Z,3.54
2023-02-06T10:43:10.616Z,3.46
2023-02-06T10:44:51.764Z,3.43
2023-02-06T10:46:11.418Z,3.43
2023-02-06T10:47:20.996Z,3.25
2023-02-06T10:48:25.161Z,3.24
2023-02-06T10:49:31.335Z,3.25
2023-02-06T10:50:36.426Z,3.27
2023-02-06T10:51:43.105Z,3.24
2023-02-06T10:52:45.037Z,3.28
2023-02-06T10:53:51.460Z,3.21
2023-02-06T10:55:03.115Z,3.18
2023-02-06T10:56:06.905Z,3.22
2023-02-06T10:57:17.263Z,3.24
2023-02-06T10:58:27.076Z,3.32
2023-02-06T10:59:32.587Z,3.36
2023-02-06T11:00:34.702Z,3.41
2023-02-06T11:01:38.597Z,3.34
2023-02-06T11:02:44.104Z,3.31
2023-02-06T11:03:50.376Z,3.18
2023-02-06T11:04:54.941Z,3.15
2023-02-06T11:05:56.693Z,3.08
2023-02-06T11:07:01.000Z,3.04
2023-02-06T11:08:16.488Z,3.02
2023-02-06T11:09:17.725Z,3.03
2023-02-06T11:10:20.437Z,3.10
2023-02-06T11:11:25.912Z,3.23
2023-02-06T11:12:30.375Z,3.24
2023-02-06T11:13:34.468Z,3.27
2023-02-06T11:14:37.363Z,3.31
2023-02-06T11:15:50.963Z,3.29
2023-02-06T11:16:53.050Z,3.34
2023-02-06T11:17:54.516Z,3.40
2023-02-06T11:18:57.589Z,3.44
2023-02-06T11:20:01.882Z,3.44
2023-02-06T11:21:03.572Z,3.43
2023-02-06T11:22:04.784Z,3.43
2023-02-06T11:23:16.981Z,3.44
2023-02-06T11:24:20.258Z,3.42
2023-02-06T11:25:31.773Z,3.42
2023-02-06T11:26:33.048Z,3.51
2023-02-06T11:27:35.616Z,3.60
2023-02-06T11:28:39.952Z,3.64
2023-02-06T11:29:45.603Z,3.56
2023-02-06T11:30:54.844Z,3.54
2023-02-06T11:32:00.192Z,3.50
2023-02-06T11:33:21.668Z,3.35
2023-02-06T11:34:24.503Z,3.37
2023-02-06T11:35:39.691Z,3.44
2023-02-06T11:36:41.931Z,3.63
2023-02-06T11:37:43.147Z,3.61
2023-02-06T11:38:53.632Z,3.59
2023-02-06T11:40:13.345Z,3.56
2023-02-06T11:41:18.213Z,3.59
2023-02-06T11:42:21.004Z,3.66
2023-02-06T11:43:23.926Z,3.68
2023-02-06T11:44:26.073Z,3.74
2023-02-06T11:45:28.974Z,3.76
2023-02-06T11:46:31.653Z,3.79
2023-02-06T11:47:32.845Z,3.84
2023-02-06T11:48:41.820Z,3.83
2023-02-06T11:49:43.071Z,3.82
2023-02-06T11:50:52.813Z,3.82
2023-02-06T11:51:58.466Z,3.74
2023-02-06T11:53:07.473Z,3.64
2023-02-06T11:54:18.379Z,3.48
2023-02-06T11:55:23.842Z,3.57
2023-02-06T11:56:25.116Z,3.53
2023-02-06T11:57:26.328Z,3.55
2023-02-06T11:58:28.887Z,3.48
2023-02-06T11:59:31.588Z,3.46
2023-02-06T12:00:33.569Z,3.48
2023-02-06T12:01:42.023Z,3.57
2023-02-06T12:02:49.422Z,3.60
2023-02-06T12:03:50.717Z,3.57
2023-02-06T12:04:56.805Z,3.48
2023-02-06T12:06:03.048Z,3.38
2023-02-06T12:07:10.877Z,3.34
2023-02-06T12:08:13.670Z,3.28
2023-02-06T12:09:14.900Z,3.35
2023-02-06T12:10:17.973Z,3.27
2023-02-06T12:11:19.163Z,3.30
2023-02-06T12:12:32.959Z,3.34
2023-02-06T12:13:38.958Z,3.45
2023-02-06T12:14:43.764Z,3.43
2023-02-06T12:15:48.267Z,3.31
2023-02-06T12:16:50.660Z,3.21
2023-02-06T12:18:05.436Z,3.23
2023-02-06T12:19:10.729Z,3.23
2023-02-06T12:20:15.455Z,3.20
2023-02-06T12:21:21.213Z,3.12
2023-02-06T12:22:23.584Z,3.06
2023-02-06T12:23:31.317Z,3.17
2023-02-06T12:24:42.176Z,3.11
2023-02-06T12:25:47.901Z,3.07
2023-02-06T12:26:50.559Z,3.04
2023-02-06T12:27:52.922Z,3.06
2023-02-06T12:29:17.031Z,3.07
2023-02-06T12:30:29.096Z,3.04
2023-02-06T12:31:36.737Z,3.04
2023-02-06T12:32:41.766Z,3.03
2023-02-06T12:33:46.422Z,3.05
2023-02-06T12:34:58.265Z,3.07
2023-02-06T12:36:03.913Z,3.19
2023-02-06T12:37:10.530Z,3.19
2023-02-06T12:38:30.267Z,3.18
2023-02-06T12:39:32.564Z,3.24
2023-02-06T12:40:42.932Z,3.24
2023-02-06T12:41:53.148Z,3.29
2023-02-06T12:42:59.432Z,3.27
2023-02-06T12:44:04.708Z,3.28
2023-02-06T12:45:12.306Z,3.20
2023-02-06T12:46:17.238Z,3.17
2023-02-06T12:47:21.146Z,3.20
2023-02-06T12:48:34.674Z,3.28
2023-02-06T12:49:41.567Z,3.22
2023-02-06T12:50:48.568Z,3.25
2023-02-06T12:51:52.905Z,3.25
2023-02-06T12:53:26.504Z,3.29
2023-02-06T12:54:37.442Z,3.33
2023-02-06T12:55:49.582Z,3.35
2023-02-06T12:56:56.603Z,3.37
2023-02-06T12:57:58.218Z,3.36
2023-02-06T12:59:15.055Z,3.40
2023-02-06T13:00:26.628Z,3.43
2023-02-06T13:01:42.186Z,3.50
2023-02-06T13:03:02.480Z,3.47
2023-02-06T13:04:06.984Z,3.58
2023-02-06T13:05:17.242Z,3.64
2023-02-06T13:06:20.736Z,3.77
2023-02-06T13:07:23.356Z,3.83
2023-02-06T13:08:38.518Z,3.76
2023-02-06T13:09:41.903Z,3.78
2023-02-06T13:10:43.363Z,3.73
2023-02-06T13:11:44.661Z,3.69
2023-02-06T13:12:53.102Z,3.54
2023-02-06T13:14:03.326Z,3.54
2023-02-06T13:15:06.959Z,3.56
2023-02-06T13:16:09.062Z,3.53
2023-02-06T13:17:15.576Z,3.49
2023-02-06T13:18:37.138Z,3.59
2023-02-06T13:19:41.253Z,3.63
2023-02-06T13:21:02.428Z,3.62
2023-02-06T13:22:09.537Z,3.67
2023-02-06T13:23:13.902Z,3.69
2023-02-06T13:24:17.155Z,3.74
2023-02-06T13:25:24.545Z,3.78
2023-02-06T13:26:44.604Z,3.82
2023-02-06T13:27:45.991Z,3.84
2023-02-06T13:28:57.312Z,3.86
2023-02-06T13:30:15.857Z,3.85
2023-02-06T13:31:22.384Z,3.86
2023-02-06T13:32:23.699Z,3.86
2023-02-06T13:33:25.426Z,3.95
2023-02-06T13:34:26.728Z,4.06
2023-02-06T13:35:29.356Z,4.18
2023-02-06T13:36:41.701Z,4.21
2023-02-06T13:37:47.850Z,4.25
2023-02-06T13:38:53.377Z,4.35
2023-02-06T13:40:13.470Z,4.47
2023-02-06T13:41:14.753Z,4.49
2023-02-06T13:42:32.712Z,4.43
2023-02-06T13:43:34.670Z,4.39
2023-02-06T13:44:36.849Z,4.27
2023-02-06T13:45:44.133Z,4.28
2023-02-06T13:47:05.525Z,4.21
2023-02-06T13:48:09.978Z,4.13
2023-02-06T13:49:36.716Z,4.14
2023-02-06T13:50:53.262Z,4.10
2023-02-06T13:52:10.781Z,4.07
2023-02-06T13:53:20.095Z,4.01
2023-02-06T13:54:30.591Z,4.01
2023-02-06T13:55:45.035Z,4.07
2023-02-06T13:56:46.237Z,4.03
2023-02-06T13:57:54.845Z,4.09
2023-02-06T13:58:57.151Z,3.98
2023-02-06T14:00:00.971Z,3.92
2023-02-06T14:01:04.213Z,3.98
2023-02-06T14:02:17.777Z,3.95
2023-02-06T14:03:23.534Z,3.94
2023-02-06T14:04:26.759Z,3.94
2023-02-06T14:05:39.617Z,3.98
2023-02-06T14:06:59.656Z,3.96
2023-02-06T14:08:24.355Z,3.95
2023-02-06T14:09:35.978Z,3.91
2023-02-06T14:10:44.976Z,3.94
2023-02-06T14:12:09.261Z,3.97
2023-02-06T14:13:16.508Z,3.99
2023-02-06T14:14:17.797Z,3.97
2023-02-06T14:15:21.752Z,3.95
2023-02-06T14:16:28.869Z,3.90